Time;durP1;ratioP1;P1;durP2;ratioP2;P2;SDS_P1;SDS_P2;PMS_P1;PMS_P2;Temp;Humidity;BMP_temperature;BMP_pressure;BME280_temperature;BME280_humidity;BME280_pressure;Samples;Min_cycle;Max_cycle;Signal;HPM_P1;HPM_P2
2021/10/04 00:01:05;;;;;;;42.33;21.02;;;;;;;11.85;52.50;101558.56;3510961;28;20495;-72
2021/10/04 00:02:45;;;;;;;39.65;20.48;;;;;;;11.84;52.74;101567.56;3511309;28;20048;-74
2021/10/04 00:04:28;;;;;;;40.60;20.67;;;;;;;11.80;52.81;101572.41;3511265;28;20503;-75
2021/10/04 00:06:09;;;;;;;43.92;20.60;;;;;;;11.79;52.68;101568.03;3495986;28;20511;-74
2021/10/04 00:07:49;;;;;;;44.47;21.73;;;;;;;11.79;52.88;101570.72;3507993;28;20077;-74
2021/10/04 00:09:30;;;;;;;38.53;21.70;;;;;;;11.77;52.93;101568.22;3510356;28;20036;-75
2021/10/04 00:11:11;;;;;;;37.45;20.92;;;;;;;11.75;53.02;101574.72;3510891;28;20050;-76
2021/10/04 00:12:51;;;;;;;38.55;20.52;;;;;;;11.71;53.07;101579.50;3511140;28;20043;-76
2021/10/04 00:14:32;;;;;;;39.17;21.42;;;;;;;11.66;53.25;101576.47;3496264;28;20097;-76
2021/10/04 00:16:13;;;;;;;43.10;24.00;;;;;;;11.63;53.25;101571.44;3508266;28;20032;-76
2021/10/04 00:17:53;;;;;;;35.38;21.80;;;;;;;11.62;53.46;101584.97;3510408;28;20123;-74
2021/10/04 00:19:35;;;;;;;39.38;20.20;;;;;;;11.54;53.55;101577.72;3495936;28;20044;-75
2021/10/04 00:21:15;;;;;;;43.93;21.50;;;;;;;11.53;53.60;101581.38;3508275;28;20043;-74
2021/10/04 00:22:58;;;;;;;43.05;21.95;;;;;;;11.48;53.60;101586.31;3511088;28;20290;-76
2021/10/04 00:24:39;;;;;;;44.78;22.13;;;;;;;11.40;53.71;101584.41;3510949;28;20225;-76
2021/10/04 00:26:20;;;;;;;37.38;20.13;;;;;;;11.33;53.80;101581.53;3495992;28;20139;-76
2021/10/04 00:28:01;;;;;;;36.13;20.98;;;;;;;11.28;54.11;101583.81;3507692;28;20123;-75
2021/10/04 00:29:41;;;;;;;34.90;19.88;;;;;;;11.24;54.18;101587.78;3509192;28;20040;-75
2021/10/04 00:31:22;;;;;;;35.47;20.17;;;;;;;11.26;54.15;101587.63;3510223;28;20047;-75
2021/10/04 00:33:03;;;;;;;38.38;18.48;;;;;;;11.25;54.13;101584.09;3496139;28;20044;-75
2021/10/04 00:34:44;;;;;;;40.00;21.58;;;;;;;11.29;54.10;101585.50;3492931;28;20503;-75
2021/10/04 00:36:25;;;;;;;42.72;20.08;;;;;;;11.30;54.21;101587.16;3507854;28;20138;-76
2021/10/04 00:38:05;;;;;;;41.22;19.08;;;;;;;11.30;54.08;101592.50;3495765;28;20072;-75
2021/10/04 00:39:46;;;;;;;40.53;21.27;;;;;;;11.29;54.21;101582.00;3506499;28;20067;-76
2021/10/04 00:41:27;;;;;;;39.47;20.75;;;;;;;11.28;54.21;101593.63;3510667;28;20498;-76
2021/10/04 00:43:08;;;;;;;36.15;21.05;;;;;;;11.26;54.06;101588.47;3510148;28;20036;-76
2021/10/04 00:44:49;;;;;;;38.38;20.05;;;;;;;11.25;54.20;101589.44;3508723;28;20044;-76
2021/10/04 00:46:30;;;;;;;41.58;20.88;;;;;;;11.25;54.20;101594.78;3510465;28;20514;-76
2021/10/04 00:48:11;;;;;;;36.85;19.95;;;;;;;11.23;54.06;101588.78;3510618;28;20048;-76
2021/10/04 00:49:52;;;;;;;42.35;20.88;;;;;;;11.23;54.32;101587.91;3510744;28;20193;-76
2021/10/04 00:51:33;;;;;;;36.58;21.58;;;;;;;11.19;54.19;101595.41;3495740;28;20155;-74
2021/10/04 00:53:14;;;;;;;44.03;20.70;;;;;;;11.17;54.21;101591.22;3492652;28;20463;-76
2021/10/04 00:54:55;;;;;;;35.65;20.42;;;;;;;11.13;54.30;101590.69;3506284;28;20127;-76
2021/10/04 00:56:35;;;;;;;39.55;20.95;;;;;;;11.05;54.38;101579.94;3509431;28;20048;-76
2021/10/04 00:58:16;;;;;;;36.53;20.02;;;;;;;10.98;54.71;101585.00;3495400;28;20092;-74
2021/10/04 00:59:57;;;;;;;37.47;19.65;;;;;;;10.91;54.73;101587.44;3507898;28;20570;-75
2021/10/04 01:01:38;;;;;;;33.20;19.83;;;;;;;10.91;54.85;101591.94;3495538;28;20041;-74
2021/10/04 01:03:19;;;;;;;37.30;19.20;;;;;;;10.89;54.90;101580.56;3507398;28;20040;-75
2021/10/04 01:04:59;;;;;;;38.30;21.48;;;;;;;10.91;55.03;101584.75;3509621;28;20089;-75
2021/10/04 01:06:40;;;;;;;38.15;20.67;;;;;;;10.90;54.98;101576.94;3495449;28;20047;-76
2021/10/04 01:08:21;;;;;;;31.17;18.63;;;;;;;10.89;54.96;101573.44;3492709;28;20040;-75
2021/10/04 01:10:03;;;;;;;36.20;19.85;;;;;;;10.88;54.82;101585.06;3507144;28;20410;-75
2021/10/04 01:11:43;;;;;;;35.70;19.08;;;;;;;10.86;54.98;101586.22;3510203;28;20051;-75
2021/10/04 01:13:24;;;;;;;30.77;18.35;;;;;;;10.85;54.94;101585.38;3510379;28;20501;-76
2021/10/04 01:15:05;;;;;;;45.88;20.98;;;;;;;10.83;54.99;101583.84;3509882;28;20200;-75
2021/10/04 01:16:47;;;;;;;;;;;;;;;10.93;54.61;101589.13;3495457;28;20041;-76
2021/10/04 01:18:27;;;;;;;38.15;18.58;;;;;;;10.82;55.00;101582.19;3507666;28;20364;-75
2021/10/04 01:20:18;;;;;;;46.22;20.90;;;;;;;10.85;55.16;101585.38;3509958;28;20036;-75
2021/10/04 01:21:58;;;;;;;32.22;18.65;;;;;;;10.84;55.12;101581.03;3509320;28;20067;-74
2021/10/04 01:23:39;;;;;;;38.13;20.98;;;;;;;10.86;54.97;101584.38;3510181;28;20080;-74
2021/10/04 01:25:21;;;;;;;46.03;21.67;;;;;;;10.91;55.05;101586.59;3510027;28;20040;-74
2021/10/04 01:27:04;;;;;;;32.90;18.98;;;;;;;10.93;54.87;101589.97;3510091;28;20106;-74
2021/10/04 01:28:44;;;;;;;44.10;20.63;;;;;;;10.95;55.04;101592.50;3494992;28;20049;-74
2021/10/04 01:30:28;;;;;;;43.50;21.95;;;;;;;10.94;54.99;101590.78;3492605;28;20534;-75
2021/10/04 01:32:09;;;;;;;43.50;20.63;;;;;;;10.97;54.99;101595.81;3506779;28;20142;-74
2021/10/04 01:33:51;;;;;;;38.70;22.60;;;;;;;10.95;55.17;101592.50;3494877;28;20036;-74
2021/10/04 01:35:32;;;;;;;40.67;20.23;;;;;;;10.94;55.08;101596.13;3507258;28;20028;-75
2021/10/04 01:37:12;;;;;;;41.45;22.15;;;;;;;10.95;55.13;101597.81;3509915;28;20032;-74
2021/10/04 01:38:54;;;;;;;36.13;19.20;;;;;;;10.92;55.21;101598.97;3509906;28;20050;-73
2021/10/04 01:40:35;;;;;;;42.65;21.48;;;;;;;10.87;55.37;101602.06;3509594;28;20040;-75
2021/10/04 01:42:16;;;;;;;41.97;21.35;;;;;;;10.87;55.37;101601.25;3510016;28;20835;-74
2021/10/04 01:43:57;;;;;;;43.58;21.15;;;;;;;10.84;55.33;101597.03;3510242;28;20039;-73
2021/10/04 01:45:38;;;;;;;37.58;19.23;;;;;;;10.80;55.74;101600.16;3509891;28;20050;-73
2021/10/04 01:47:19;;;;;;;37.53;20.55;;;;;;;10.75;55.68;101597.91;3509620;28;20131;-75
2021/10/04 01:49:00;;;;;;;37.92;20.38;;;;;;;10.77;55.86;101595.97;3511191;28;20040;-75
2021/10/04 01:50:40;;;;;;;42.15;22.10;;;;;;;10.76;55.72;101604.94;3495975;28;20123;-75
2021/10/04 01:52:21;;;;;;;41.45;19.92;;;;;;;10.73;55.71;101604.41;3507843;28;20100;-75
2021/10/04 01:54:02;;;;;;;35.35;20.27;;;;;;;10.75;55.82;101603.25;3494938;28;20033;-76
2021/10/04 01:55:43;;;;;;;38.40;21.58;;;;;;;10.75;55.85;101607.75;3491941;28;20096;-77
2021/10/04 01:57:24;;;;;;;33.90;19.17;;;;;;;10.73;56.06;101597.22;3491866;28;20750;-77
2021/10/04 01:59:06;;;;;;;37.97;21.13;;;;;;;10.74;55.89;101609.59;3506567;28;20048;-77
2021/10/04 02:00:47;;;;;;;37.03;19.58;;;;;;;10.75;55.72;101608.59;3509869;28;20064;-78
2021/10/04 02:02:30;;;;;;;38.42;19.20;;;;;;;10.75;55.89;101597.91;3510154;28;20048;-78
2021/10/04 02:04:11;;;;;;;37.15;19.92;;;;;;;10.74;55.83;101603.41;3510045;28;20078;-78
2021/10/04 02:05:52;;;;;;;35.33;18.48;;;;;;;10.72;55.83;101606.22;3508801;28;20044;-74
2021/10/04 02:07:34;;;;;;;37.53;19.40;;;;;;;10.72;55.84;101600.06;3509236;28;20125;-74
2021/10/04 02:09:16;;;;;;;37.20;18.58;;;;;;;10.73;55.85;101607.91;3495100;28;20044;-74
2021/10/04 02:10:57;;;;;;;33.72;18.17;;;;;;;10.70;55.84;101605.53;3507999;28;20046;-74
2021/10/04 02:12:39;;;;;;;41.55;19.45;;;;;;;10.66;55.82;101606.81;3509719;28;20068;-76
2021/10/04 02:14:19;;;;;;;31.40;16.65;;;;;;;10.66;55.97;101598.81;3509927;28;20036;-76
2021/10/04 02:16:00;;;;;;;41.55;20.30;;;;;;;10.66;56.20;101601.47;3494882;28;20637;-76
2021/10/04 02:17:41;;;;;;;35.85;19.05;;;;;;;10.65;56.11;101608.63;3491463;28;20037;-77
2021/10/04 02:19:22;;;;;;;33.70;18.27;;;;;;;10.65;55.95;101610.47;3506820;28;20372;-76
2021/10/04 02:21:02;;;;;;;28.50;17.00;;;;;;;10.60;56.03;101605.56;3509736;28;20043;-76
2021/10/04 02:22:44;;;;;;;33.63;18.58;;;;;;;10.54;55.81;101602.66;3509665;28;20036;-75
2021/10/04 02:24:25;;;;;;;34.80;17.02;;;;;;;10.51;56.03;101613.59;3494845;28;20051;-78
2021/10/04 02:26:05;;;;;;;31.65;16.80;;;;;;;10.51;56.12;101616.25;3506696;28;20062;-74
2021/10/04 02:27:47;;;;;;;28.50;15.48;;;;;;;10.51;55.90;101610.94;3509759;28;20047;-75
2021/10/04 02:29:27;;;;;;;34.85;17.88;;;;;;;10.52;55.89;101608.13;3509742;28;20052;-75
2021/10/04 02:31:08;;;;;;;37.85;17.13;;;;;;;10.51;56.01;101600.28;3509350;28;20123;-75
2021/10/04 02:32:49;;;;;;;30.52;16.10;;;;;;;10.49;55.78;101608.44;3494598;28;20048;-75
2021/10/04 02:34:30;;;;;;;29.77;15.80;;;;;;;10.46;55.95;101612.22;3506886;28;20047;-76
2021/10/04 02:36:10;;;;;;;33.10;18.45;;;;;;;10.46;56.11;101611.41;3508897;28;20068;-74
2021/10/04 02:37:52;;;;;;;33.45;16.67;;;;;;;10.43;55.95;101609.88;3509770;28;20048;-75
2021/10/04 02:39:33;;;;;;;32.10;18.45;;;;;;;10.47;55.95;101610.41;3509604;28;20048;-75
2021/10/04 02:41:13;;;;;;;38.97;17.23;;;;;;;10.36;55.80;101597.28;3509635;28;20044;-75
2021/10/04 02:42:54;;;;;;;29.33;17.50;;;;;;;10.40;55.85;101618.16;3509659;28;20048;-76
2021/10/04 02:44:35;;;;;;;34.85;17.25;;;;;;;10.35;55.93;101617.75;3494661;28;20514;-75
2021/10/04 02:46:16;;;;;;;30.23;15.55;;;;;;;10.27;56.10;101612.25;3506532;28;20047;-77
2021/10/04 02:47:58;;;;;;;27.48;17.00;;;;;;;10.34;56.36;101616.06;3509314;28;20044;-76
2021/10/04 02:49:39;;;;;;;29.67;17.88;;;;;;;10.34;56.32;101616.06;3509600;28;20518;-76
2021/10/04 02:51:20;;;;;;;34.78;16.27;;;;;;;10.33;56.20;101614.38;3509721;28;20043;-75
2021/10/04 02:53:00;;;;;;;27.90;15.70;;;;;;;10.29;56.44;101612.16;3509741;28;20036;-77
2021/10/04 02:54:42;;;;;;;31.02;16.90;;;;;;;10.27;56.43;101609.59;3509489;28;20036;-75
2021/10/04 02:56:22;;;;;;;38.38;20.83;;;;;;;10.35;56.34;101617.75;3509076;28;20059;-74
2021/10/04 02:58:03;;;;;;;33.50;16.75;;;;;;;10.38;56.51;101617.47;3509408;28;20474;-75
2021/10/04 02:59:44;;;;;;;32.00;16.92;;;;;;;10.41;56.34;101611.84;3509166;28;20032;-74
2021/10/04 03:01:25;;;;;;;32.40;16.15;;;;;;;10.45;56.23;101615.03;3509251;28;20526;-74
2021/10/04 03:03:06;;;;;;;31.27;16.55;;;;;;;10.45;56.20;101607.91;3510585;28;20092;-73
2021/10/04 03:04:47;;;;;;;33.60;16.15;;;;;;;10.48;56.18;101615.59;3511790;28;20043;-74
2021/10/04 03:06:28;;;;;;;32.75;17.17;;;;;;;10.50;56.01;101610.09;3511362;28;20495;-75
2021/10/04 03:08:08;;;;;;;30.83;15.80;;;;;;;10.51;55.99;101611.81;3483382;28;20059;-75
2021/10/04 03:09:49;;;;;;;31.35;15.65;;;;;;;10.53;55.85;101608.97;3477940;28;20033;-75
2021/10/04 03:11:30;;;;;;;27.23;15.27;;;;;;;10.54;55.93;101610.66;3506104;28;20044;-75
2021/10/04 03:13:10;;;;;;;24.98;14.77;;;;;;;10.54;55.88;101614.16;3511786;28;20035;-74
2021/10/04 03:14:51;;;;;;;22.50;13.68;;;;;;;10.55;55.82;101607.00;3512071;28;20529;-75
2021/10/04 03:16:32;;;;;;;26.13;14.57;;;;;;;10.54;55.63;101613.34;3511605;28;20115;-75
2021/10/04 03:18:12;;;;;;;29.13;15.32;;;;;;;10.51;55.60;101603.81;3511885;28;20040;-75
2021/10/04 03:19:53;;;;;;;26.75;14.88;;;;;;;10.51;55.61;101609.13;3511920;28;20092;-76
2021/10/04 03:21:34;;;;;;;31.35;16.38;;;;;;;10.49;55.72;101616.44;3497074;28;20054;-74
2021/10/04 03:23:15;;;;;;;30.00;16.35;;;;;;;10.45;55.82;101607.91;3508649;28;20036;-75
2021/10/04 03:24:55;;;;;;;31.70;15.48;;;;;;;10.47;55.91;101613.91;3511828;28;20047;-75
2021/10/04 03:26:37;;;;;;;28.33;15.63;;;;;;;10.44;56.09;101610.69;3511225;28;20046;-75
2021/10/04 03:28:17;;;;;;;28.65;15.80;;;;;;;10.42;56.04;101610.84;3512025;28;20059;-76
2021/10/04 03:29:58;;;;;;;27.83;14.73;;;;;;;10.43;56.33;101620.53;3511828;28;20047;-75
2021/10/04 03:31:39;;;;;;;29.63;15.02;;;;;;;10.41;56.03;101611.84;3514011;28;20201;-76
2021/10/04 03:33:19;;;;;;;27.35;15.90;;;;;;;10.46;55.85;101617.56;3498086;28;20427;-75
2021/10/04 03:35:00;;;;;;;28.40;13.75;;;;;;;10.48;55.81;101612.09;3509064;28;20506;-77
2021/10/04 03:36:41;;;;;;;32.30;16.20;;;;;;;10.53;55.63;101614.31;3498090;28;20522;-75
2021/10/04 03:38:21;;;;;;;28.73;14.90;;;;;;;10.48;55.56;101614.75;3510910;28;20068;-76
2021/10/04 03:40:05;;;;;;;26.80;15.68;;;;;;;10.46;55.86;101617.56;3512871;28;20036;-76
2021/10/04 03:41:45;;;;;;;27.45;14.10;;;;;;;10.48;55.57;101623.59;3496319;28;20525;-75
2021/10/04 03:43:26;;;;;;;24.38;14.57;;;;;;;10.47;55.75;101621.91;3509367;28;20048;-76
2021/10/04 03:45:08;;;;;;;30.90;15.90;;;;;;;10.54;55.48;101621.34;3496307;28;20499;-76
2021/10/04 03:46:50;;;;;;;23.52;13.07;;;;;;;10.56;55.34;101622.88;3493296;28;20052;-76
2021/10/04 03:48:31;;;;;;;26.23;14.20;;;;;;;10.58;55.40;101617.38;3509429;28;20127;-75
2021/10/04 03:50:13;;;;;;;28.23;14.57;;;;;;;10.57;55.32;101626.38;3496488;28;20063;-75
2021/10/04 03:51:54;;;;;;;29.88;13.70;;;;;;;10.58;55.24;101623.53;3508426;28;20518;-76
2021/10/04 03:53:34;;;;;;;23.98;13.30;;;;;;;10.56;55.19;101630.00;3511658;28;20040;-75
2021/10/04 03:55:16;;;;;;;25.00;14.20;;;;;;;10.60;55.19;101628.72;3496604;28;20036;-76
2021/10/04 03:56:56;;;;;;;23.13;14.07;;;;;;;10.61;55.06;101633.94;3493793;28;20131;-76
2021/10/04 03:58:37;;;;;;;27.02;13.73;;;;;;;10.64;54.93;101636.31;3495402;28;20523;-76
2021/10/04 04:00:21;;;;;;;25.08;14.13;;;;;;;10.63;54.76;101625.75;3508141;28;20074;-75
2021/10/04 04:02:02;;;;;;;23.15;13.18;;;;;;;10.62;54.82;101624.94;3496539;28;20447;-74
2021/10/04 04:03:42;;;;;;;24.52;13.63;;;;;;;10.66;54.81;101625.47;3508349;28;20123;-75
2021/10/04 04:05:23;;;;;;;26.85;13.88;;;;;;;10.68;54.77;101629.66;3499250;28;20478;-77
2021/10/04 04:07:04;;;;;;;23.60;13.73;;;;;;;10.73;54.57;101628.41;3511749;28;20036;-76
2021/10/04 04:08:45;;;;;;;25.33;12.52;;;;;;;10.68;54.48;101628.84;3501654;28;20531;-77
2021/10/04 04:10:25;;;;;;;28.10;14.15;;;;;;;10.65;54.71;101624.63;3514522;28;20061;-77
2021/10/04 04:12:06;;;;;;;26.60;12.63;;;;;;;10.64;54.61;101638.13;3501047;28;20048;-78
2021/10/04 04:13:47;;;;;;;26.30;13.23;;;;;;;10.63;54.72;101639.09;3511360;28;20407;-75
2021/10/04 04:15:27;;;;;;;25.58;13.05;;;;;;;10.61;54.66;101633.94;3510408;28;20035;-75
2021/10/04 04:17:08;;;;;;;22.60;12.25;;;;;;;10.62;54.65;101640.09;3511004;28;20032;-74
2021/10/04 04:18:49;;;;;;;24.67;13.23;;;;;;;10.68;54.57;101642.16;3510475;28;20529;-75
2021/10/04 04:20:30;;;;;;;35.88;13.10;;;;;;;10.75;54.31;101632.59;3510666;28;20384;-75
2021/10/04 04:22:10;;;;;;;28.38;13.43;;;;;;;10.80;54.23;101641.00;3510782;28;20132;-74
2021/10/04 04:23:51;;;;;;;24.25;13.32;;;;;;;10.81;54.22;101640.00;3511039;28;20075;-75
2021/10/04 04:25:32;;;;;;;24.15;12.15;;;;;;;10.80;54.00;101638.31;3511037;28;20036;-75
2021/10/04 04:27:12;;;;;;;24.20;12.57;;;;;;;10.81;54.06;101637.31;3510672;28;20460;-75
2021/10/04 04:28:53;;;;;;;23.45;13.15;;;;;;;10.84;54.13;101639.72;3510484;28;20411;-74
2021/10/04 04:30:34;;;;;;;36.42;14.05;;;;;;;10.90;54.14;101644.47;3511024;28;20052;-76
2021/10/04 04:32:14;;;;;;;30.98;13.32;;;;;;;10.95;54.11;101645.84;3510108;28;20047;-77
2021/10/04 04:33:55;;;;;;;27.38;14.15;;;;;;;10.97;54.09;101644.72;3495683;28;20044;-77
2021/10/04 04:35:36;;;;;;;25.95;14.30;;;;;;;11.00;54.13;101648.91;3508323;28;20040;-76
2021/10/04 04:37:16;;;;;;;28.35;12.13;;;;;;;11.03;54.01;101653.94;3496393;28;20037;-77
2021/10/04 04:38:57;;;;;;;22.58;13.40;;;;;;;11.09;53.78;101650.66;3507070;28;20051;-76
2021/10/04 04:40:38;;;;;;;25.98;13.82;;;;;;;11.08;53.95;101641.00;3510327;28;20078;-73
2021/10/04 04:42:20;;;;;;;26.80;12.85;;;;;;;11.15;53.67;101652.72;3511225;28;20075;-76
2021/10/04 04:44:01;;;;;;;27.25;14.63;;;;;;;11.22;53.63;101645.81;3495586;28;20048;-76
2021/10/04 04:45:42;;;;;;;24.02;12.35;;;;;;;11.35;53.36;101648.94;3507593;28;20687;-76
2021/10/04 04:47:23;;;;;;;23.27;12.32;;;;;;;11.46;53.21;101649.72;3510999;28;20409;-75
2021/10/04 04:49:03;;;;;;;29.23;14.65;;;;;;;11.50;53.10;101649.25;3510200;28;20044;-75
2021/10/04 04:50:45;;;;;;;26.65;13.38;;;;;;;11.53;52.96;101656.13;3495561;28;20434;-77
2021/10/04 04:52:25;;;;;;;25.75;13.75;;;;;;;11.56;52.92;101655.81;3507649;28;20046;-75
2021/10/04 04:54:06;;;;;;;21.88;12.98;;;;;;;11.57;52.72;101654.84;3510593;28;20032;-76
2021/10/04 04:55:47;;;;;;;25.17;13.30;;;;;;;11.64;52.79;101655.94;3510178;28;20073;-75
2021/10/04 04:57:27;;;;;;;26.67;12.65;;;;;;;11.70;52.88;101660.63;3510334;28;20043;-70
2021/10/04 04:59:08;;;;;;;27.17;12.20;;;;;;;11.82;52.78;101655.06;3509996;28;20127;-71
2021/10/04 05:00:49;;;;;;;21.05;11.98;;;;;;;11.94;52.30;101659.19;3510475;28;20040;-73
2021/10/04 05:02:35;;;;;;;16.60;10.52;;;;;;;12.02;52.46;101663.78;3509928;28;20032;-77
2021/10/04 05:04:16;;;;;;;28.20;11.65;;;;;;;12.08;52.24;101668.47;3510284;28;20046;-73
2021/10/04 05:05:57;;;;;;;21.15;12.38;;;;;;;12.08;51.96;101649.78;3494465;28;20035;-73
2021/10/04 05:07:38;;;;;;;18.50;10.57;;;;;;;12.22;51.62;101666.09;3506759;28;20067;-78
2021/10/04 05:09:18;;;;;;;22.38;12.65;;;;;;;12.32;51.25;101673.19;3495295;28;20044;-72
2021/10/04 05:10:59;;;;;;;43.60;22.80;;;;;;;12.39;51.49;101661.69;3506189;28;20042;-72
2021/10/04 05:12:40;;;;;;;30.33;15.93;;;;;;;12.55;51.26;101677.00;3494746;28;20032;-71
2021/10/04 05:14:21;;;;;;;24.75;11.30;;;;;;;12.68;50.66;101673.06;3507272;28;20047;-71
2021/10/04 05:16:02;;;;;;;18.88;9.63;;;;;;;12.76;50.37;101673.09;3495073;28;20098;-71
2021/10/04 05:17:43;;;;;;;19.35;11.05;;;;;;;12.80;49.84;101671.75;3492426;28;20040;-72
2021/10/04 05:19:23;;;;;;;17.65;10.38;;;;;;;12.87;49.56;101670.13;3507277;28;20047;-71
2021/10/04 05:21:04;;;;;;;20.15;10.02;;;;;;;12.94;49.50;101676.53;3510027;28;20518;-71
2021/10/04 05:22:45;;;;;;;18.05;10.35;;;;;;;13.04;49.40;101669.19;3509986;28;20040;-71
2021/10/04 05:24:25;;;;;;;18.45;10.60;;;;;;;13.15;49.09;101668.06;3509908;28;20047;-71
2021/10/04 05:26:06;;;;;;;16.27;10.65;;;;;;;13.30;48.96;101673.66;3508848;28;20036;-72
2021/10/04 05:27:47;;;;;;;17.60;10.57;;;;;;;13.44;48.62;101666.81;3509676;28;20040;-71
2021/10/04 05:29:27;;;;;;;16.00;10.43;;;;;;;13.62;48.75;101669.38;3510075;28;20046;-77
2021/10/04 05:31:08;;;;;;;14.85;9.55;;;;;;;13.75;48.55;101667.84;3509194;28;20042;-77
2021/10/04 05:32:49;;;;;;;23.83;11.40;;;;;;;13.85;48.06;101670.38;3510104;28;20048;-78
2021/10/04 05:34:30;;;;;;;20.93;10.53;;;;;;;13.99;47.55;101676.06;3467849;28;20038;-71
2021/10/04 05:36:11;;;;;;;24.35;11.27;;;;;;;14.11;47.29;101674.72;3500100;28;20292;-73
2021/10/04 05:37:51;;;;;;;16.67;10.05;;;;;;;14.19;47.30;101680.91;3509034;28;20039;-71
2021/10/04 05:39:32;;;;;;;17.45;10.38;;;;;;;14.31;47.13;101678.72;3509927;28;20052;-70
2021/10/04 05:41:13;;;;;;;17.42;10.73;;;;;;;14.39;47.04;101676.03;3510011;28;20506;-72
2021/10/04 05:42:54;;;;;;;14.83;9.30;;;;;;;14.45;46.64;101674.50;3509616;28;20040;-74
2021/10/04 05:44:35;;;;;;;17.73;10.15;;;;;;;14.55;46.48;101674.34;3495003;28;20040;-73
2021/10/04 05:46:15;;;;;;;18.00;9.45;;;;;;;14.70;46.07;101675.31;3508917;28;20040;-73
2021/10/04 05:47:56;;;;;;;20.67;10.18;;;;;;;14.88;46.00;101685.00;3494529;28;20115;-72
2021/10/04 05:49:37;;;;;;;17.60;9.93;;;;;;;15.03;45.53;101677.88;3506905;28;20051;-73
2021/10/04 05:51:19;;;;;;;17.65;10.77;;;;;;;15.20;45.11;101679.47;3494757;28;20040;-72
2021/10/04 05:53:00;;;;;;;18.05;10.77;;;;;;;15.41;44.42;101680.69;3492218;28;20036;-71
2021/10/04 05:54:41;;;;;;;13.77;9.23;;;;;;;15.63;43.96;101674.50;3506959;28;20036;-72
2021/10/04 05:56:21;;;;;;;16.13;10.10;;;;;;;15.85;43.92;101672.88;3494979;28;20519;-71
2021/10/04 05:58:02;;;;;;;16.52;9.23;;;;;;;16.10;43.28;101681.53;3506440;28;20066;-71
2021/10/04 05:59:43;;;;;;;16.15;8.98;;;;;;;16.40;43.38;101687.00;3509137;28;20036;-70
2021/10/04 06:01:23;;;;;;;15.30;9.90;;;;;;;16.69;42.87;101680.78;3515165;28;20035;-75
2021/10/04 06:03:04;;;;;;;17.63;10.35;;;;;;;16.91;41.99;101683.59;3511426;28;20044;-77
2021/10/04 06:04:45;;;;;;;16.67;10.30;;;;;;;16.99;40.94;101684.34;3508903;28;20048;-77
2021/10/04 06:06:25;;;;;;;16.92;10.02;;;;;;;17.05;40.66;101681.91;3493185;28;20036;-76
2021/10/04 06:08:06;;;;;;;16.33;9.30;;;;;;;17.18;40.64;101679.38;3491102;28;20041;-76
2021/10/04 06:09:47;;;;;;;16.85;10.07;;;;;;;17.32;40.09;101675.81;3506361;28;20050;-75
2021/10/04 06:11:29;;;;;;;16.40;9.75;;;;;;;17.37;40.22;101678.78;3509091;28;20093;-76
2021/10/04 06:13:10;;;;;;;21.60;9.23;;;;;;;17.54;40.21;101678.53;3508507;28;20109;-77
2021/10/04 06:14:50;;;;;;;15.02;9.88;;;;;;;17.75;39.89;101683.09;3510096;28;20044;-77
2021/10/04 06:16:31;;;;;;;16.80;9.80;;;;;;;17.94;39.31;101676.22;3494167;28;20516;-76
2021/10/04 06:18:12;;;;;;;18.17;9.40;;;;;;;18.13;39.17;101682.84;3495172;28;20043;-74
2021/10/04 06:19:54;;;;;;;14.82;7.95;;;;;;;18.35;38.84;101678.22;3507411;28;20097;-75
2021/10/04 06:21:35;;;;;;;13.13;8.55;;;;;;;18.55;38.70;101676.50;3494246;28;20130;-77
2021/10/04 06:23:15;;;;;;;13.93;9.40;;;;;;;18.65;38.05;101685.06;3504416;28;20471;-76
2021/10/04 06:24:56;;;;;;;18.27;9.60;;;;;;;18.70;37.62;101688.00;3508498;28;20127;-77
2021/10/04 06:26:37;;;;;;;16.50;9.80;;;;;;;18.62;38.11;101677.38;3494118;28;20036;-76
2021/10/04 06:28:17;;;;;;;13.68;8.50;;;;;;;18.71;37.87;101688.84;3490065;28;20151;-75
2021/10/04 06:29:59;;;;;;;12.25;9.60;;;;;;;18.80;37.39;101678.75;3486056;28;20051;-76
2021/10/04 06:31:40;;;;;;;18.02;9.88;;;;;;;18.96;37.51;101681.09;3505353;28;20054;-76
2021/10/04 06:33:21;;;;;;;17.05;9.73;;;;;;;19.11;37.07;101676.38;3509088;28;20039;-74
2021/10/04 06:35:02;;;;;;;13.50;8.77;;;;;;;19.39;37.12;101678.97;3509907;28;20487;-74
2021/10/04 06:36:43;;;;;;;13.80;8.75;;;;;;;19.68;36.15;101681.56;3494022;28;20045;-75
2021/10/04 06:38:24;;;;;;;14.73;8.95;;;;;;;19.94;35.92;101676.16;3507826;28;20040;-75
2021/10/04 06:40:05;;;;;;;13.63;9.80;;;;;;;20.21;35.41;101684.28;3511291;28;20044;-75
2021/10/04 06:41:46;;;;;;;13.57;9.18;;;;;;;20.44;34.88;101690.06;3496544;28;20123;-76
2021/10/04 06:43:27;;;;;;;16.27;9.90;;;;;;;20.68;34.54;101683.22;3509050;28;20387;-76
2021/10/04 06:45:08;;;;;;;12.77;8.97;;;;;;;20.86;34.07;101690.66;3510839;28;20097;-75
2021/10/04 06:46:49;;;;;;;14.68;9.70;;;;;;;21.01;33.94;101686.84;3511249;28;20036;-75
2021/10/04 06:48:30;;;;;;;15.23;10.53;;;;;;;21.20;33.87;101688.66;3514300;28;20036;-75
2021/10/04 06:50:10;;;;;;;19.83;11.17;;;;;;;21.44;33.06;101686.25;3495921;28;20040;-75
2021/10/04 06:51:51;;;;;;;12.93;9.67;;;;;;;21.70;32.81;101693.38;3507923;28;20042;-75
2021/10/04 06:53:33;;;;;;;20.07;9.73;;;;;;;21.87;32.11;101682.84;3510799;28;20086;-76
2021/10/04 06:55:14;;;;;;;17.10;10.13;;;;;;;21.99;32.03;101679.19;3510446;28;20150;-75
2021/10/04 06:56:55;;;;;;;15.67;10.53;;;;;;;22.11;31.92;101682.00;3496763;28;20041;-76
2021/10/04 06:58:35;;;;;;;18.93;9.57;;;;;;;22.34;31.70;101681.41;3507615;28;20302;-76
2021/10/04 07:00:20;;;;;;;19.80;10.10;;;;;;;22.46;31.20;101683.38;3495871;28;20485;-76
2021/10/04 07:02:02;;;;;;;20.73;9.70;;;;;;;22.53;31.22;101686.84;3508376;28;20347;-76
2021/10/04 07:03:42;;;;;;;;;;;;;;;22.75;31.59;101692.69;3510316;28;20044;-74
2021/10/04 07:05:23;;;;;;;15.45;10.45;;;;;;;22.61;31.18;101697.44;3510633;28;19920;-74
2021/10/04 07:07:04;;;;;;;13.93;10.00;;;;;;;22.57;30.97;101688.91;3511003;28;20143;-74
2021/10/04 07:08:44;;;;;;;13.77;9.07;;;;;;;22.59;30.93;101684.09;3511767;28;20044;-75
2021/10/04 07:10:25;;;;;;;13.50;10.30;;;;;;;22.64;30.59;101697.00;3511743;28;20051;-75
2021/10/04 07:12:07;;;;;;;16.30;10.25;;;;;;;22.57;30.44;101691.63;3510541;28;20115;-73
2021/10/04 07:13:49;;;;;;;16.77;9.77;;;;;;;22.51;30.47;101687.09;3496509;28;20526;-74
2021/10/04 07:15:30;;;;;;;18.25;10.32;;;;;;;22.54;30.39;101685.81;3507683;28;20039;-77
2021/10/04 07:17:11;;;;;;;15.40;9.82;;;;;;;22.74;30.36;101689.13;3510837;28;20444;-77
2021/10/04 07:18:51;;;;;;;11.67;8.57;;;;;;;23.02;29.79;101687.78;3510934;28;20035;-76
2021/10/04 07:20:33;;;;;;;18.37;12.33;;;;;;;23.34;29.87;101691.16;3510856;28;20135;-75
2021/10/04 07:22:14;;;;;;;18.65;11.82;;;;;;;23.66;29.25;101693.63;3497265;28;20043;-76
2021/10/04 07:23:55;;;;;;;15.48;10.13;;;;;;;23.95;28.94;101692.75;3510791;28;20486;-75
2021/10/04 07:25:36;;;;;;;16.67;10.80;;;;;;;24.19;28.49;101698.25;3510106;28;20076;-76
2021/10/04 07:27:17;;;;;;;12.80;8.73;;;;;;;24.48;28.38;101698.41;3483020;28;20332;-76
2021/10/04 07:29:00;;;;;;;12.57;10.23;;;;;;;24.68;27.88;101695.28;3505968;28;20495;-75
2021/10/04 07:30:40;;;;;;;12.43;8.95;;;;;;;24.84;27.50;101700.00;3510956;28;20096;-76
2021/10/04 07:32:21;;;;;;;14.60;8.47;;;;;;;25.08;27.73;101711.69;3496268;28;20174;-75
2021/10/04 07:34:06;;;;;;;14.52;9.25;;;;;;;25.30;26.88;101698.25;3507854;28;20075;-73
2021/10/04 07:35:51;;;;;;;18.35;10.20;;;;;;;25.45;26.53;101703.13;3511255;28;20475;-75
2021/10/04 07:37:34;;;;;;;16.10;9.90;;;;;;;25.41;26.56;101699.25;3511723;28;20039;-74
2021/10/04 07:39:15;;;;;;;15.27;10.32;;;;;;;25.42;26.69;101699.00;3510930;28;20156;-74
2021/10/04 07:40:58;;;;;;;12.75;9.00;;;;;;;25.57;26.33;101703.91;3495963;28;20507;-75